Time;durP1;ratioP1;P1;durP2;ratioP2;P2;SDS_P1;SDS_P2;PMS_P1;PMS_P2;Temp;Humidity;BMP_temperature;BMP_pressure;BME280_temperature;BME280_humidity;BME280_pressure;Samples;Min_cycle;Max_cycle;Signal;HPM_P1;HPM_P2
2023/02/03 00:01:12;;;;;;;12.20;2.25;;;;;;;9.11;100.00;102170.25;5050708;28;20021;-70
2023/02/03 00:03:38;;;;;;;7.50;1.70;;;;;;;9.13;100.00;102172.94;5032918;28;20021;-68
2023/02/03 00:06:04;;;;;;;12.57;2.50;;;;;;;9.09;100.00;102179.75;5051141;28;20040;-69
2023/02/03 00:08:30;;;;;;;12.45;2.65;;;;;;;9.02;100.00;102182.03;5048483;28;20078;-68
2023/02/03 00:10:56;;;;;;;9.07;1.95;;;;;;;8.94;100.00;102173.84;5050734;28;20056;-68
2023/02/03 00:13:21;;;;;;;11.43;2.22;;;;;;;9.01;100.00;102183.78;5046294;28;20067;-69
2023/02/03 00:15:46;;;;;;;12.60;2.72;;;;;;;8.88;100.00;102168.31;5031242;28;20051;-68
2023/02/03 00:18:12;;;;;;;8.93;2.35;;;;;;;8.94;100.00;102174.72;5049773;28;20032;-70
2023/02/03 00:20:37;;;;;;;20.80;3.38;;;;;;;8.89;100.00;102167.47;5048474;28;20052;-69
2023/02/03 00:23:07;;;;;;;9.00;2.30;;;;;;;8.85;100.00;102155.94;5049967;28;20096;-68
2023/02/03 00:25:33;;;;;;;9.82;2.33;;;;;;;8.98;100.00;102167.91;5049313;28;20048;-68
2023/02/03 00:27:59;;;;;;;15.10;1.85;;;;;;;9.02;100.00;102172.44;5049505;28;20017;-69
2023/02/03 00:30:24;;;;;;;14.45;3.63;;;;;;;9.02;100.00;102167.19;5049818;28;20036;-68
2023/02/03 00:32:49;;;;;;;13.50;1.95;;;;;;;8.97;100.00;102184.47;5044158;28;20112;-68
2023/02/03 00:35:15;;;;;;;12.65;2.20;;;;;;;9.01;100.00;102182.91;5039821;28;20504;-68
2023/02/03 00:37:40;;;;;;;13.20;2.58;;;;;;;9.05;100.00;102190.97;5046277;28;20028;-70
2023/02/03 00:40:06;;;;;;;12.45;2.10;;;;;;;9.11;100.00;102198.19;5050556;28;20549;-69
2023/02/03 00:42:33;;;;;;;7.50;1.65;;;;;;;9.09;100.00;102189.38;5046315;28;20030;-68
2023/02/03 00:44:58;;;;;;;6.47;1.50;;;;;;;9.10;100.00;102194.69;5050890;28;20036;-69
2023/02/03 00:47:24;;;;;;;13.90;1.88;;;;;;;9.14;100.00;102197.44;5050680;28;20029;-69
2023/02/03 00:49:49;;;;;;;8.70;1.70;;;;;;;9.14;100.00;102193.09;5049785;28;20029;-69
2023/02/03 00:52:14;;;;;;;11.38;1.77;;;;;;;9.26;100.00;102176.97;5048190;28;20052;-69
2023/02/03 00:54:40;;;;;;;11.38;2.20;;;;;;;9.11;100.00;102179.81;5044120;28;20112;-68
2023/02/03 00:57:05;;;;;;;12.07;1.85;;;;;;;9.11;100.00;102185.06;5049296;28;20078;-68
2023/02/03 00:59:30;;;;;;;6.07;1.60;;;;;;;9.21;100.00;102184.66;5050316;28;20377;-69
2023/02/03 01:01:56;;;;;;;8.70;2.05;;;;;;;9.15;100.00;102183.50;5039687;28;20384;-69
2023/02/03 01:04:21;;;;;;;8.02;1.60;;;;;;;9.18;100.00;102186.25;5047167;28;20083;-68
2023/02/03 01:06:46;;;;;;;7.05;1.60;;;;;;;9.24;100.00;102178.66;5041538;28;20099;-69
2023/02/03 01:09:12;;;;;;;11.93;2.10;;;;;;;9.25;100.00;102175.16;5049885;28;20029;-68
2023/02/03 01:11:37;;;;;;;11.68;1.88;;;;;;;9.28;100.00;102183.19;5050142;28;20052;-69
2023/02/03 01:14:02;;;;;;;11.18;1.67;;;;;;;9.19;100.00;102170.56;5048034;28;20052;-68
2023/02/03 01:16:29;;;;;;;13.20;2.22;;;;;;;9.29;100.00;102148.19;5051125;28;20029;-68
2023/02/03 01:18:56;;;;;;;11.23;1.48;;;;;;;9.24;100.00;102157.63;5044943;28;20198;-69
2023/02/03 01:21:23;;;;;;;11.57;1.77;;;;;;;9.27;100.00;102165.63;5050149;28;20108;-68
2023/02/03 01:23:49;;;;;;;15.32;1.55;;;;;;;9.25;100.00;102180.41;5041069;28;20128;-69
2023/02/03 01:26:18;;;;;;;10.77;2.22;;;;;;;9.21;100.00;102173.25;5050752;28;20040;-68
2023/02/03 01:28:43;;;;;;;15.70;2.15;;;;;;;9.29;100.00;102158.72;5038148;28;20045;-69
2023/02/03 01:31:20;;;;;;;10.98;1.83;;;;;;;9.31;100.00;102164.94;5050387;28;20056;-69
2023/02/03 01:33:47;;;;;;;8.43;1.63;;;;;;;9.22;100.00;102147.03;5054694;28;20104;-69
2023/02/03 01:36:13;;;;;;;11.90;1.75;;;;;;;9.36;100.00;102147.66;5060417;28;20029;-68
2023/02/03 01:38:39;;;;;;;8.77;1.42;;;;;;;9.33;100.00;102149.25;5051120;28;20501;-69
2023/02/03 01:41:08;;;;;;;9.00;2.38;;;;;;;9.22;100.00;102143.53;5042871;28;20053;-69
2023/02/03 01:43:36;;;;;;;11.40;2.90;;;;;;;9.30;100.00;102147.38;5052529;28;20468;-70
2023/02/03 01:46:12;;;;;;;6.45;1.40;;;;;;;9.24;100.00;102152.38;5045598;28;20029;-69
2023/02/03 01:48:38;;;;;;;7.57;1.00;;;;;;;9.27;100.00;102163.00;5040635;28;20041;-69
2023/02/03 01:51:04;;;;;;;10.00;1.42;;;;;;;9.29;100.00;102140.31;5046922;28;20025;-67
2023/02/03 01:53:31;;;;;;;6.53;1.50;;;;;;;9.25;100.00;102154.16;5052640;28;20143;-68
2023/02/03 01:55:58;;;;;;;13.40;1.90;;;;;;;9.33;100.00;102131.75;5045815;28;20060;-68
2023/02/03 01:58:31;;;;;;;10.95;1.83;;;;;;;9.38;100.00;102134.56;5050699;28;20095;-68
2023/02/03 02:00:57;;;;;;;10.70;2.35;;;;;;;9.42;100.00;102136.50;5052547;28;20029;-67
2023/02/03 02:03:30;;;;;;;10.13;1.27;;;;;;;9.39;100.00;102133.75;5051807;28;20373;-69
2023/02/03 02:06:13;;;;;;;6.95;1.73;;;;;;;9.38;100.00;102129.31;5045793;28;20028;-69
2023/02/03 02:08:41;;;;;;;10.77;1.88;;;;;;;9.37;100.00;102135.41;5045312;28;20044;-69
2023/02/03 02:11:08;;;;;;;11.50;1.42;;;;;;;9.39;100.00;102134.63;5041540;28;20026;-69
2023/02/03 02:13:34;;;;;;;8.48;1.63;;;;;;;9.38;100.00;102122.31;5049193;28;20047;-68
2023/02/03 02:16:36;;;;;;;9.57;1.75;;;;;;;9.36;100.00;102113.50;5049803;28;20037;-68
2023/02/03 02:19:14;;;;;;;9.05;1.38;;;;;;;9.37;100.00;102117.94;5049790;28;20492;-69
2023/02/03 02:22:06;;;;;;;9.93;1.90;;;;;;;9.41;100.00;102109.34;5051453;28;20032;-68
2023/02/03 02:24:49;;;;;;;13.48;1.88;;;;;;;9.40;100.00;102119.75;5040904;28;20029;-67
2023/02/03 02:27:33;;;;;;;5.43;1.42;;;;;;;9.41;100.00;102119.84;5049605;28;20388;-69
2023/02/03 02:30:10;;;;;;;7.35;1.05;;;;;;;9.48;100.00;102114.84;5050388;28;20466;-68
2023/02/03 02:32:52;;;;;;;4.43;1.40;;;;;;;9.44;100.00;102124.31;5045887;28;20021;-67
2023/02/03 02:35:58;;;;;;;13.10;1.80;;;;;;;9.52;100.00;102135.16;5038474;28;20047;-68
2023/02/03 02:38:45;;;;;;;9.55;1.23;;;;;;;9.43;100.00;102127.78;5046933;28;20032;-70
2023/02/03 02:41:16;;;;;;;9.00;2.15;;;;;;;9.46;100.00;102133.16;5033335;28;20043;-69
2023/02/03 02:43:50;;;;;;;8.32;1.63;;;;;;;9.51;100.00;102130.72;5046858;28;20025;-68
2023/02/03 02:46:30;;;;;;;7.50;1.45;;;;;;;9.44;100.00;102133.09;5053450;28;20048;-68
2023/02/03 02:49:03;;;;;;;7.15;1.55;;;;;;;9.47;100.00;102119.22;5047973;28;20040;-69
2023/02/03 02:51:30;;;;;;;8.88;1.98;;;;;;;9.41;100.00;102127.72;5051361;28;20021;-68
2023/02/03 02:54:02;;;;;;;8.20;1.50;;;;;;;9.42;100.00;102129.50;5050275;28;20093;-68
2023/02/03 02:56:29;;;;;;;12.32;1.70;;;;;;;9.52;100.00;102124.63;5050259;28;20376;-68
2023/02/03 02:58:56;;;;;;;11.68;1.65;;;;;;;9.47;100.00;102115.66;5047630;28;20071;-68
2023/02/03 03:01:22;;;;;;;8.85;1.42;;;;;;;9.50;100.00;102114.06;5049589;28;20032;-69
2023/02/03 03:03:47;;;;;;;7.60;1.27;;;;;;;9.45;100.00;102100.75;5047491;28;20493;-69
2023/02/03 03:06:19;;;;;;;12.27;1.58;;;;;;;9.40;100.00;102082.97;5050178;28;20032;-68
2023/02/03 03:09:04;;;;;;;5.95;1.90;;;;;;;9.48;100.00;102088.56;5052970;28;20024;-69
2023/02/03 03:11:36;;;;;;;8.82;1.95;;;;;;;9.51;100.00;102096.56;5052650;28;20033;-69
2023/02/03 03:14:05;;;;;;;12.25;1.92;;;;;;;9.47;100.00;102089.38;5048064;28;20033;-69
2023/02/03 03:16:34;;;;;;;9.45;1.40;;;;;;;9.45;100.00;102100.75;5054138;28;20112;-69
2023/02/03 03:19:04;;;;;;;4.80;1.52;;;;;;;9.49;100.00;102093.00;5052230;28;20031;-68
2023/02/03 03:21:36;;;;;;;7.13;1.20;;;;;;;9.47;100.00;102111.31;5050251;28;20037;-70
2023/02/03 03:24:09;;;;;;;11.55;1.98;;;;;;;9.36;100.00;102113.50;5043018;28;20123;-70
2023/02/03 03:26:41;;;;;;;5.22;1.38;;;;;;;9.41;100.00;102113.69;5039407;28;20032;-68
2023/02/03 03:29:12;;;;;;;17.27;1.98;;;;;;;9.45;100.00;102115.59;5043427;28;20037;-68
2023/02/03 03:31:39;;;;;;;10.00;1.95;;;;;;;9.44;100.00;102121.69;5049881;28;20025;-69
2023/02/03 03:34:04;;;;;;;8.75;1.00;;;;;;;9.39;100.00;102126.75;5046124;28;20029;-68
2023/02/03 03:36:51;;;;;;;8.27;1.65;;;;;;;9.43;100.00;102127.78;5066376;28;20538;-69
2023/02/03 03:39:28;;;;;;;6.25;1.42;;;;;;;9.38;100.00;102124.06;5050997;28;20090;-68
2023/02/03 03:41:59;;;;;;;10.68;1.55;;;;;;;9.29;100.00;102114.06;5042623;28;20029;-68
2023/02/03 03:44:32;;;;;;;6.60;1.40;;;;;;;9.38;100.00;102114.44;5050214;28;20033;-67
2023/02/03 03:47:34;;;;;;;7.93;1.55;;;;;;;9.31;100.00;102120.28;5038151;28;20688;-69
2023/02/03 03:50:03;;;;;;;13.23;2.15;;;;;;;9.24;100.00;102118.25;5031671;28;20070;-68
2023/02/03 03:52:33;;;;;;;13.13;1.40;;;;;;;9.33;100.00;102121.22;5042619;28;20029;-67
2023/02/03 03:55:02;;;;;;;11.82;1.73;;;;;;;9.24;100.00;102124.38;5051859;28;20502;-68
2023/02/03 03:57:40;;;;;;;8.00;1.58;;;;;;;9.34;100.00;102123.03;5040544;28;20029;-68
2023/02/03 04:00:08;;;;;;;8.25;1.35;;;;;;;9.23;100.00;102116.44;5050147;28;20021;-69
2023/02/03 04:02:37;;;;;;;8.05;1.38;;;;;;;9.33;100.00;102121.22;5048223;28;20025;-68
2023/02/03 04:05:04;;;;;;;8.25;1.48;;;;;;;9.21;100.00;102125.97;5047205;28;20130;-69
2023/02/03 04:07:44;;;;;;;6.55;1.27;;;;;;;9.26;100.00;102129.69;5047865;28;20055;-68
2023/02/03 04:10:31;;;;;;;10.65;2.40;;;;;;;9.30;100.00;102138.63;5049372;28;20047;-69
2023/02/03 04:12:56;;;;;;;7.57;1.52;;;;;;;9.22;100.00;102128.66;5039896;28;20025;-68
2023/02/03 04:15:22;;;;;;;6.20;1.55;;;;;;;9.22;100.00;102122.50;5048311;28;20050;-69
2023/02/03 04:17:47;;;;;;;13.82;2.45;;;;;;;9.25;100.00;102118.31;5046563;28;20021;-69
2023/02/03 04:20:14;;;;;;;9.40;1.95;;;;;;;9.25;100.00;102134.06;5051251;28;20530;-69
2023/02/03 04:22:39;;;;;;;9.70;1.52;;;;;;;9.31;100.00;102119.41;5048500;28;20354;-68
2023/02/03 04:25:05;;;;;;;10.02;1.50;;;;;;;9.29;100.00;102114.06;5047137;28;20028;-69
2023/02/03 04:27:30;;;;;;;4.40;1.00;;;;;;;9.16;100.00;102119.66;5034043;28;20021;-70
2023/02/03 04:29:56;;;;;;;13.52;2.17;;;;;;;9.21;100.00;102120.72;5047745;28;20031;-69
2023/02/03 04:32:21;;;;;;;12.68;2.20;;;;;;;9.17;100.00;102114.44;5042904;28;20017;-68
2023/02/03 04:34:46;;;;;;;10.43;1.30;;;;;;;9.18;100.00;102117.97;5044868;28;20513;-69
2023/02/03 04:37:12;;;;;;;11.30;1.77;;;;;;;9.19;100.00;102119.78;5044025;28;20508;-69
2023/02/03 04:39:37;;;;;;;5.90;1.42;;;;;;;9.19;100.00;102123.28;5049164;28;20047;-68
2023/02/03 04:42:02;;;;;;;9.75;1.88;;;;;;;9.18;100.00;102123.22;5048361;28;20025;-69
2023/02/03 04:44:28;;;;;;;8.48;1.42;;;;;;;9.20;100.00;102119.81;5045752;28;20472;-68
2023/02/03 04:46:53;;;;;;;14.73;1.92;;;;;;;9.16;100.00;102119.66;5044990;28;20036;-69
2023/02/03 04:49:19;;;;;;;9.57;1.48;;;;;;;9.09;100.00;102135.13;5042953;28;20029;-68
2023/02/03 04:51:44;;;;;;;10.07;1.40;;;;;;;9.06;100.00;102137.63;5044322;28;20377;-68
2023/02/03 04:54:10;;;;;;;9.07;1.25;;;;;;;9.07;100.00;102139.41;5039198;28;20017;-67
2023/02/03 04:56:36;;;;;;;16.40;2.30;;;;;;;9.09;100.00;102135.13;5047451;28;20029;-72
2023/02/03 04:59:01;;;;;;;13.00;1.55;;;;;;;9.16;100.00;102127.53;5040174;28;20110;-68
2023/02/03 05:01:27;;;;;;;7.35;1.73;;;;;;;9.09;100.00;102127.25;5040130;28;20032;-69
2023/02/03 05:03:52;;;;;;;11.63;1.88;;;;;;;9.09;100.00;102126.34;5037487;28;20031;-69
2023/02/03 05:06:23;;;;;;;12.25;1.58;;;;;;;9.09;100.00;102121.09;5050770;28;20036;-68
2023/02/03 05:08:48;;;;;;;14.15;1.73;;;;;;;9.09;100.00;102105.34;5050520;28;20040;-68
2023/02/03 05:11:14;;;;;;;14.63;1.70;;;;;;;9.11;100.00;102112.47;5053398;28;20025;-70
2023/02/03 05:13:39;;;;;;;11.50;2.40;;;;;;;9.09;100.00;102126.34;5047995;28;20029;-68
2023/02/03 05:16:05;;;;;;;7.15;1.33;;;;;;;9.09;100.00;102127.25;5061203;28;20020;-69
2023/02/03 05:18:30;;;;;;;7.82;1.83;;;;;;;9.01;100.00;102133.91;5071656;28;20516;-71
2023/02/03 05:20:55;;;;;;;13.93;2.00;;;;;;;9.04;100.00;102135.75;5057437;28;20021;-68
2023/02/03 05:23:21;;;;;;;18.70;2.03;;;;;;;8.98;100.00;102139.03;5053764;28;20032;-67
2023/02/03 05:25:46;;;;;;;13.38;2.00;;;;;;;9.08;100.00;102135.06;5051881;28;20025;-69
2023/02/03 05:28:11;;;;;;;18.75;2.17;;;;;;;9.16;100.00;102133.66;5054868;28;20029;-68
2023/02/03 05:30:37;;;;;;;11.93;1.65;;;;;;;9.16;100.00;102132.78;5049541;28;20025;-67
2023/02/03 05:33:02;;;;;;;12.27;1.90;;;;;;;9.06;100.00;102129.75;5053974;28;20028;-68
2023/02/03 05:35:27;;;;;;;13.52;1.70;;;;;;;9.05;100.00;102145.44;5050934;28;20396;-67
2023/02/03 05:37:53;;;;;;;14.75;2.28;;;;;;;8.97;100.00;102145.09;5050272;28;20464;-70
2023/02/03 05:43:02;;;;;;;13.93;2.22;;;;;;;8.92;100.00;102133.47;5050491;28;20040;-67
2023/02/03 05:45:28;;;;;;;12.18;1.88;;;;;;;8.99;100.00;102122.41;5049824;28;20021;-67
2023/02/03 05:47:53;;;;;;;11.40;2.03;;;;;;;8.91;100.00;102118.56;5040572;28;20040;-69
2023/02/03 05:50:18;;;;;;;13.05;1.92;;;;;;;9.04;100.00;102110.38;5050398;28;20145;-67
2023/02/03 05:52:44;;;;;;;7.60;1.30;;;;;;;8.89;100.00;102102.75;5052582;28;20025;-69
2023/02/03 05:55:09;;;;;;;10.95;1.92;;;;;;;8.94;100.00;102110.84;5053046;28;20532;-69
2023/02/03 05:57:34;;;;;;;20.40;2.30;;;;;;;8.94;100.00;102124.84;5050461;28;20378;-67
2023/02/03 06:00:00;;;;;;;5.78;1.38;;;;;;;8.94;100.00;102132.72;5049879;28;20534;-67
2023/02/03 06:02:25;;;;;;;13.55;1.88;;;;;;;8.96;100.00;102140.66;5044263;28;20033;-69
2023/02/03 06:04:50;;;;;;;7.97;1.27;;;;;;;8.90;100.00;102140.41;5048758;28;20397;-68
2023/02/03 06:07:16;;;;;;;11.43;1.50;;;;;;;8.88;100.00;102152.56;5049989;28;20041;-67
2023/02/03 06:09:41;;;;;;;9.18;1.80;;;;;;;8.96;100.00;102134.53;5044701;28;20453;-69
2023/02/03 06:12:06;;;;;;;22.63;2.05;;;;;;;8.85;100.00;102136.69;5051130;28;20595;-68
2023/02/03 06:14:32;;;;;;;10.88;1.95;;;;;;;8.73;100.00;102131.78;5047581;28;20028;-67
2023/02/03 06:16:57;;;;;;;12.02;2.03;;;;;;;8.78;100.00;102133.75;5051697;28;20481;-68
2023/02/03 06:19:22;;;;;;;11.23;1.92;;;;;;;8.80;100.00;102127.69;5059190;28;20477;-68
2023/02/03 06:21:48;;;;;;;11.20;2.28;;;;;;;8.71;100.00;102134.31;5046584;28;20039;-68
2023/02/03 06:24:13;;;;;;;13.73;2.80;;;;;;;8.71;100.00;102126.47;5034959;28;20060;-69
2023/02/03 06:26:38;;;;;;;15.43;2.55;;;;;;;8.85;100.00;102137.56;5046571;28;20025;-69
2023/02/03 06:29:04;;;;;;;15.48;2.45;;;;;;;8.69;100.00;102124.59;5047715;28;20116;-68
2023/02/03 06:31:29;;;;;;;15.75;3.03;;;;;;;8.74;100.00;102129.22;5047231;28;20075;-69
2023/02/03 06:33:56;;;;;;;17.30;2.42;;;;;;;8.77;100.00;102157.31;5050655;28;20028;-68
2023/02/03 06:36:22;;;;;;;15.32;2.13;;;;;;;8.74;100.00;102151.94;5053344;28;20081;-67
2023/02/03 06:38:48;;;;;;;10.18;1.85;;;;;;;8.76;100.00;102152.88;5058014;28;20355;-69
2023/02/03 06:41:13;;;;;;;18.67;3.15;;;;;;;8.75;100.00;102143.25;5051953;28;20028;-68
2023/02/03 06:43:38;;;;;;;14.65;1.85;;;;;;;8.71;100.00;102144.81;5053539;28;20431;-69
2023/02/03 06:46:04;;;;;;;12.40;2.63;;;;;;;8.77;100.00;102166.06;5054072;28;20440;-68
2023/02/03 06:48:29;;;;;;;10.90;1.55;;;;;;;8.90;100.00;102164.03;5053631;28;20103;-68
2023/02/03 06:50:54;;;;;;;7.63;1.90;;;;;;;8.90;100.00;102166.66;5053617;28;20029;-69
2023/02/03 06:53:20;;;;;;;12.80;2.08;;;;;;;8.79;100.00;102174.06;5049259;28;20025;-69
2023/02/03 06:55:46;;;;;;;12.40;3.38;;;;;;;8.89;100.00;102185.84;5043875;28;20063;-69
2023/02/03 06:58:12;;;;;;;11.00;1.50;;;;;;;8.80;100.00;102188.94;5045155;28;20032;-70
2023/02/03 07:00:37;;;;;;;15.07;1.88;;;;;;;8.89;100.00;102186.75;5049356;28;20024;-68
2023/02/03 07:03:03;;;;;;;8.35;2.42;;;;;;;8.88;100.00;102189.31;5051204;28;20033;-70
2023/02/03 07:05:28;;;;;;;12.77;2.13;;;;;;;8.86;100.00;102185.72;5044714;28;20036;-69
2023/02/03 07:07:54;;;;;;;13.85;2.13;;;;;;;8.84;100.00;102184.75;5046853;28;20084;-69
2023/02/03 07:10:19;;;;;;;11.25;1.75;;;;;;;8.86;100.00;102190.97;5050552;28;20032;-67
2023/02/03 07:12:45;;;;;;;11.93;2.20;;;;;;;8.89;100.00;102183.22;5051013;28;20021;-70
2023/02/03 07:15:11;;;;;;;12.20;2.00;;;;;;;8.89;100.00;102189.38;5046608;28;20503;-69
2023/02/03 07:17:36;;;;;;;15.30;1.92;;;;;;;8.93;100.00;102193.94;5052533;28;20040;-69
2023/02/03 07:20:02;;;;;;;13.98;2.33;;;;;;;8.86;100.00;102193.59;5050659;28;20443;-68
2023/02/03 07:22:27;;;;;;;11.25;2.35;;;;;;;8.99;100.00;102201.16;5050222;28;20032;-68
2023/02/03 07:24:53;;;;;;;9.52;1.55;;;;;;;8.93;100.00;102211.41;5052908;28;20567;-69
2023/02/03 07:27:19;;;;;;;9.57;1.92;;;;;;;8.96;100.00;102203.66;5067574;28;20103;-69
2023/02/03 07:29:44;;;;;;;7.55;1.45;;;;;;;8.96;100.00;102203.66;5043940;28;20060;-71
2023/02/03 07:32:10;;;;;;;13.10;2.35;;;;;;;8.95;100.00;102196.63;5055293;28;20326;-72
2023/02/03 07:34:35;;;;;;;24.13;3.03;;;;;;;8.94;100.00;102200.97;5049155;28;20032;-68
2023/02/03 07:37:01;;;;;;;12.27;2.00;;;;;;;9.01;100.00;102206.53;5060781;28;20465;-70
2023/02/03 07:39:26;;;;;;;15.13;2.08;;;;;;;8.95;100.00;102183.50;5051286;28;20104;-67
2023/02/03 07:41:52;;;;;;;12.73;2.67;;;;;;;8.99;100.00;102177.53;5052443;28;20116;-69
2023/02/03 07:44:17;;;;;;;10.93;1.85;;;;;;;8.90;100.00;102166.66;5052149;28;20021;-69
2023/02/03 07:46:44;;;;;;;23.13;2.30;;;;;;;8.97;100.00;102186.19;5052379;28;20045;-68
2023/02/03 07:49:10;;;;;;;16.30;2.20;;;;;;;9.01;100.00;102191.66;5050974;28;20028;-68
2023/02/03 07:51:36;;;;;;;30.90;2.88;;;;;;;9.05;100.00;102188.34;5061615;28;20020;-68
2023/02/03 07:54:02;;;;;;;20.52;2.50;;;;;;;9.10;100.00;102196.41;5058670;28;20029;-68
2023/02/03 07:56:28;;;;;;;12.38;2.08;;;;;;;9.02;100.00;102196.09;5054721;28;20024;-67
2023/02/03 07:58:54;;;;;;;9.95;1.83;;;;;;;8.98;100.00;102215.16;5057127;28;20028;-68
2023/02/03 08:01:19;;;;;;;9.15;1.75;;;;;;;9.07;100.00;102207.66;5050774;28;20033;-68
2023/02/03 08:03:44;;;;;;;13.75;2.45;;;;;;;9.04;100.00;102212.78;5059085;28;20024;-69
2023/02/03 08:06:10;;;;;;;20.02;1.88;;;;;;;9.08;100.00;102209.47;5053325;28;20035;-68
2023/02/03 08:08:35;;;;;;;18.33;2.63;;;;;;;9.06;100.00;102224.28;5052456;28;20028;-68
2023/02/03 08:11:01;;;;;;;10.13;2.30;;;;;;;9.10;100.00;102231.47;5054953;28;20400;-68
2023/02/03 08:13:26;;;;;;;14.45;2.22;;;;;;;9.07;100.00;102228.66;5054425;28;20454;-67
2023/02/03 08:15:52;;;;;;;16.48;2.50;;;;;;;9.18;100.00;102230.88;5053550;28;20115;-69
2023/02/03 08:18:18;;;;;;;10.73;1.88;;;;;;;9.20;100.00;102238.00;5053942;28;20027;-67
2023/02/03 08:20:45;;;;;;;8.43;2.00;;;;;;;9.08;100.00;102242.72;5057516;28;20067;-69
2023/02/03 08:23:11;;;;;;;18.02;2.25;;;;;;;9.13;100.00;102258.66;5057591;28;20056;-69
2023/02/03 08:25:36;;;;;;;12.90;2.40;;;;;;;9.05;100.00;102232.97;5054211;28;20017;-69
2023/02/03 08:28:02;;;;;;;13.00;3.30;;;;;;;9.11;100.00;102235.88;5054582;28;20472;-68
2023/02/03 08:30:27;;;;;;;9.32;1.65;;;;;;;9.08;100.00;102238.34;5059535;28;20020;-68
2023/02/03 08:32:52;;;;;;;15.98;2.40;;;;;;;9.09;100.00;102247.16;5058967;28;20399;-70
2023/02/03 08:35:18;;;;;;;9.32;1.92;;;;;;;9.13;100.00;102242.91;5056576;28;20357;-69
2023/02/03 08:37:43;;;;;;;13.30;2.03;;;;;;;9.24;100.00;102257.44;5053194;28;20559;-68
2023/02/03 08:40:09;;;;;;;5.78;2.22;;;;;;;9.15;100.00;102249.16;5036698;28;20024;-70
2023/02/03 08:42:35;;;;;;;11.73;2.00;;;;;;;9.21;100.00;102246.78;5044006;28;20036;-69
2023/02/03 08:45:00;;;;;;;8.02;1.70;;;;;;;9.21;100.00;102252.94;5052634;28;20051;-70
2023/02/03 08:47:26;;;;;;;9.73;1.85;;;;;;;9.24;100.00;102244.31;5065893;28;20033;-67
2023/02/03 08:49:51;;;;;;;10.93;1.70;;;;;;;9.27;100.00;102257.56;5054063;28;20402;-69
2023/02/03 08:52:17;;;;;;;8.90;1.58;;;;;;;9.18;100.00;102257.16;5059019;28;20032;-69
2023/02/03 08:54:43;;;;;;;11.48;2.10;;;;;;;9.18;100.00;102262.41;5055158;28;20366;-69
2023/02/03 08:57:08;;;;;;;12.88;2.20;;;;;;;9.20;100.00;102263.38;5060378;28;20078;-68
2023/02/03 08:59:36;;;;;;;7.57;1.73;;;;;;;9.33;100.00;102273.59;5062836;28;20077;-68
2023/02/03 09:02:03;;;;;;;11.07;2.33;;;;;;;9.29;100.00;102271.66;5058763;28;20064;-69
2023/02/03 09:04:29;;;;;;;14.55;2.15;;;;;;;9.26;100.00;102266.28;5066323;28;20033;-68
2023/02/03 09:06:54;;;;;;;14.73;2.17;;;;;;;9.17;100.00;102276.34;5062899;28;20098;-69
2023/02/03 09:09:20;;;;;;;13.15;1.95;;;;;;;9.24;100.00;102276.72;5048931;28;20029;-70
2023/02/03 09:11:46;;;;;;;15.60;2.25;;;;;;;9.36;100.00;102284.25;5049373;28;20036;-69
2023/02/03 09:14:11;;;;;;;14.85;3.08;;;;;;;9.31;100.00;102271.75;5051937;28;20392;-67
2023/02/03 09:16:37;;;;;;;15.90;3.10;;;;;;;9.27;100.00;102284.72;5060753;28;20032;-69
2023/02/03 09:19:02;;;;;;;15.40;2.38;;;;;;;9.33;100.00;102291.97;5056238;28;20029;-69
2023/02/03 09:21:28;;;;;;;13.52;2.08;;;;;;;9.23;100.00;102293.28;5051945;28;20521;-68
2023/02/03 09:23:53;;;;;;;14.60;1.83;;;;;;;9.27;100.00;102286.47;5059148;28;20155;-69
2023/02/03 09:26:19;;;;;;;15.57;2.65;;;;;;;9.32;100.00;102277.06;5052355;28;20120;-69
2023/02/03 09:28:44;;;;;;;12.50;2.03;;;;;;;9.31;100.00;102305.91;5053021;28;20469;-69
2023/02/03 09:31:12;;;;;;;14.57;1.92;;;;;;;9.37;100.00;102299.19;5050747;28;20059;-69
2023/02/03 09:33:38;;;;;;;19.08;2.65;;;;;;;9.43;100.00;102291.56;5056112;28;20472;-69
2023/02/03 09:36:05;;;;;;;15.50;2.63;;;;;;;9.59;100.00;102303.66;5047922;28;20029;-69
2023/02/03 09:38:31;;;;;;;18.15;2.10;;;;;;;9.68;100.00;102305.78;5059725;28;20489;-70
2023/02/03 09:41:13;;;;;;;8.55;1.63;;;;;;;9.73;100.00;102306.91;5037565;28;20028;-69
2023/02/03 09:43:47;;;;;;;15.63;1.80;;;;;;;9.86;100.00;102308.34;5054886;28;20028;-69
2023/02/03 09:46:24;;;;;;;9.30;1.63;;;;;;;9.90;100.00;102301.47;5050399;28;20091;-69
2023/02/03 09:48:55;;;;;;;4.50;1.73;;;;;;;10.00;100.00;102313.25;5050123;28;20048;-67
2023/02/03 09:51:28;;;;;;;12.73;1.63;;;;;;;10.12;100.00;102350.63;5052876;28;20032;-69
2023/02/03 09:54:00;;;;;;;10.95;1.52;;;;;;;9.92;100.00;102329.63;5053853;28;20068;-69
2023/02/03 09:56:30;;;;;;;10.57;1.85;;;;;;;9.95;100.00;102329.75;5056848;28;20028;-68
2023/02/03 09:58:56;;;;;;;12.07;1.75;;;;;;;9.97;100.00;102343.00;5055471;28;20033;-69
2023/02/03 10:01:24;;;;;;;7.05;1.20;;;;;;;9.92;100.00;102339.25;5052834;28;20047;-69
2023/02/03 10:04:10;;;;;;;8.75;1.85;;;;;;;10.09;100.00;102343.50;5047785;28;20063;-68
2023/02/03 10:06:39;;;;;;;7.50;1.30;;;;;;;10.03;100.00;102335.34;5057304;28;20045;-69
2023/02/03 10:09:17;;;;;;;8.48;1.40;;;;;;;10.17;100.00;102345.56;5060930;28;20031;-69
2023/02/03 10:12:04;;;;;;;9.32;2.03;;;;;;;10.09;100.00;102343.50;5055467;28;20031;-70
2023/02/03 10:14:51;;;;;;;9.88;1.65;;;;;;;10.08;100.00;102346.06;5069812;28;20122;-68
2023/02/03 10:17:36;;;;;;;10.90;1.60;;;;;;;10.20;100.00;102369.34;5061499;28;20063;-68
2023/02/03 10:20:34;;;;;;;5.60;1.42;;;;;;;10.29;100.00;102361.84;5057845;28;20056;-69
2023/02/03 10:23:05;;;;;;;10.30;1.83;;;;;;;10.19;100.00;102368.47;5042372;28;20033;-68
2023/02/03 10:25:39;;;;;;;9.52;1.60;;;;;;;10.18;100.00;102364.03;5060773;28;20039;-68
2023/02/03 10:28:11;;;;;;;;;;;;;;;10.32;100.00;102372.50;5065285;28;20543;-68
2023/02/03 10:30:44;;;;;;;7.63;1.88;;;;;;;10.37;100.00;102357.84;5071306;28;20005;-69
2023/02/03 10:33:17;;;;;;;4.90;1.38;;;;;;;10.27;100.00;102369.69;5059409;28;20139;-68
2023/02/03 10:35:45;;;;;;;7.65;1.48;;;;;;;10.32;100.00;102372.50;5054692;28;20052;-69
2023/02/03 10:38:20;;;;;;;13.98;2.03;;;;;;;10.16;100.00;102370.06;5064543;28;20039;-68
2023/02/03 10:40:46;;;;;;;12.45;1.95;;;;;;;10.21;100.00;102365.91;5055589;28;20063;-69
2023/02/03 10:45:57;;;;;;;6.88;1.95;;;;;;;10.32;100.00;102390.91;5056046;28;20055;-69
2023/02/03 10:48:24;;;;;;;12.57;1.90;;;;;;;10.33;100.00;102395.34;5052988;28;20384;-76
2023/02/03 10:50:51;;;;;;;17.38;2.33;;;;;;;10.26;100.00;102382.78;5047237;28;20029;-70
2023/02/03 10:53:31;;;;;;;9.63;1.73;;;;;;;10.30;100.00;102387.34;5057815;28;20025;-68
2023/02/03 10:56:09;;;;;;;9.25;1.60;;;;;;;10.26;100.00;102398.56;5048551;28;20044;-69
2023/02/03 10:58:37;;;;;;;11.43;1.90;;;;;;;10.24;100.00;102405.47;5045972;28;20033;-69
2023/02/03 11:01:14;;;;;;;13.40;1.92;;;;;;;10.21;100.00;102405.34;5052712;28;20035;-69
2023/02/03 11:03:54;;;;;;;13.18;1.88;;;;;;;10.32;100.00;102404.06;5046328;28;20430;-69
2023/02/03 11:06:20;;;;;;;9.15;1.35;;;;;;;10.28;100.00;102404.78;5051467;28;20048;-68
2023/02/03 11:08:48;;;;;;;8.80;1.42;;;;;;;10.32;100.00;102401.44;5053715;28;20115;-67
2023/02/03 11:11:20;;;;;;;9.23;1.85;;;;;;;10.25;100.00;102394.13;5052215;28;20081;-67
2023/02/03 11:13:47;;;;;;;7.45;1.73;;;;;;;10.23;100.00;102395.81;5048638;28;20048;-68
2023/02/03 11:16:20;;;;;;;5.55;1.20;;;;;;;10.27;100.00;102396.00;5052542;28;20035;-68
2023/02/03 11:18:51;;;;;;;9.15;1.92;;;;;;;10.32;100.00;102403.19;5051593;28;20036;-69
2023/02/03 11:21:20;;;;;;;8.55;1.40;;;;;;;10.36;100.00;102389.38;5050735;28;20047;-68
2023/02/03 11:23:56;;;;;;;12.10;1.70;;;;;;;10.28;100.00;102403.06;5048500;28;20103;-68
2023/02/03 11:26:29;;;;;;;8.07;1.70;;;;;;;10.24;100.00;102405.47;5049810;28;20028;-68
2023/02/03 11:28:58;;;;;;;9.98;1.63;;;;;;;10.30;100.00;102405.75;5059336;28;20032;-67
2023/02/03 11:31:26;;;;;;;10.50;1.70;;;;;;;10.33;100.00;102405.88;5051075;28;20111;-68